createdAt,value
2023-06-04T00:00:48.934Z,10.9
2023-06-04T00:10:49.855Z,10.8
2023-06-04T00:20:50.861Z,10.6
2023-06-04T00:40:51.657Z,10.6
2023-06-04T00:50:52.241Z,10.7
2023-06-04T01:00:52.606Z,10.7
2023-06-04T01:10:53.454Z,10.5
2023-06-04T01:20:53.811Z,10.3
2023-06-04T01:50:54.735Z,10.3
2023-06-04T02:00:54.965Z,10.2
2023-06-04T02:20:56.165Z,9.9
2023-06-04T02:50:57.177Z,9.6
2023-06-04T03:00:58.079Z,9.4
2023-06-04T03:31:00.939Z,8.6
2023-06-04T03:41:01.169Z,8.5
2023-06-04T03:51:02.009Z,8.5
2023-06-04T04:01:02.796Z,8.5
2023-06-04T04:11:02.934Z,8.5
2023-06-04T04:21:03.413Z,8.5
2023-06-04T04:31:04.343Z,8.7
2023-06-04T04:41:04.843Z,9
2023-06-04T04:51:05.870Z,9.3
2023-06-04T05:01:06.864Z,9.6
2023-06-04T06:21:11.801Z,13.1
2023-06-04T06:31:12.831Z,13.5
2023-06-04T06:41:13.025Z,14
2023-06-04T07:11:14.776Z,14.9
2023-06-04T07:21:15.271Z,15.3
2023-06-04T07:31:16.071Z,15.7
2023-06-04T09:01:20.922Z,19.8
2023-06-04T09:21:21.543Z,20.8
2023-06-04T09:31:22.224Z,21.1
2023-06-04T09:41:23.848Z,21.8
2023-06-04T09:51:22.699Z,21.7
2023-06-04T10:11:24.506Z,22.3
2023-06-04T10:21:24.643Z,22.8
2023-06-04T10:31:25.441Z,22.7
2023-06-04T10:41:26.413Z,23.2
2023-06-04T11:01:27.498Z,23.4
2023-06-04T11:11:27.936Z,23.3
2023-06-04T11:41:29.428Z,23.5
2023-06-04T11:51:29.787Z,23.5
2023-06-04T12:01:30.081Z,23.9
2023-06-04T12:11:31.082Z,24.6
2023-06-04T12:31:32.698Z,24.2
2023-06-04T12:51:33.946Z,24.1
2023-06-04T13:51:37.285Z,24.7
2023-06-04T14:01:37.784Z,25
2023-06-04T14:11:38.079Z,24.8
2023-06-04T14:21:38.403Z,25
2023-06-04T14:31:38.554Z,24.9
2023-06-04T14:41:39.259Z,25.3
2023-06-04T14:51:39.688Z,24.5
2023-06-04T15:01:40.759Z,24.9
2023-06-04T15:11:41.655Z,25.3
2023-06-04T15:21:42.523Z,25
2023-06-04T15:31:43.527Z,25.1
2023-06-04T15:41:44.486Z,24.9
2023-06-04T15:51:44.738Z,24.8
2023-06-04T16:01:45.738Z,24.6
2023-06-04T16:11:46.735Z,24.5
2023-06-04T16:31:47.705Z,23.1
2023-06-04T16:51:49.021Z,23.2
2023-06-04T17:21:49.983Z,22.4
2023-06-04T17:31:50.155Z,22.4
2023-06-04T17:51:51.520Z,22.3
2023-06-04T18:11:52.280Z,22
2023-06-04T18:21:53.321Z,21.8
2023-06-04T18:31:53.491Z,21.8
2023-06-04T18:41:54.136Z,21.5
2023-06-04T18:51:54.956Z,21.1
2023-06-04T19:01:56.026Z,20.5
2023-06-04T19:21:57.101Z,20.3
2023-06-04T19:31:58.036Z,19.9
2023-06-04T19:41:58.538Z,19.5
2023-06-04T19:51:59.383Z,19.3
2023-06-04T20:02:00.185Z,18.9
2023-06-04T20:12:00.773Z,18.5
2023-06-04T20:42:02.136Z,17.9
2023-06-04T20:52:03.052Z,18
2023-06-04T21:02:03.636Z,17.9
2023-06-04T21:12:04.176Z,17.8
2023-06-04T21:22:04.896Z,17.5
2023-06-04T21:32:05.113Z,17.3
2023-06-04T21:42:05.195Z,17.1
2023-06-04T21:52:13.610Z,16.8
2023-06-04T22:12:07.193Z,16.3
2023-06-04T22:22:07.703Z,16.2
2023-06-04T22:32:08.186Z,15.9
2023-06-04T22:42:08.804Z,15.7
2023-06-04T22:52:09.861Z,15.6
2023-06-04T23:12:10.725Z,15.1
2023-06-04T23:22:11.351Z,14.8
2023-06-04T23:32:12.522Z,14.6
2023-06-04T23:42:13.380Z,14.4
2023-06-04T23:52:14.371Z,14.2
